Aviation Digital Data Service (ADDS)

Output produced by METARs form (2135 UTC 28 March 2017)
found at http://aviationweather.gov/adds/metars/
 
KLAN 282037Z 2821/2918 02008KT P6SM OVC015 
     FM282130 03006KT P6SM SCT025 
     FM290400 06008KT P6SM SKC